Time;durP1;ratioP1;P1;durP2;ratioP2;P2;SDS_P1;SDS_P2;PMS_P1;PMS_P2;Temp;Humidity;BMP_temperature;BMP_pressure;BME280_temperature;BME280_humidity;BME280_pressure;Samples;Min_cycle;Max_cycle;Signal;HPM_P1;HPM_P2
2024/03/06 00:00:53;;;;;;;1.50;1.20;;;7.70;98.20;;;;;;4859977;29;20491;-82
2024/03/06 00:03:21;;;;;;;1.53;1.20;;;7.70;98.20;;;;;;4887177;29;20467;-81
2024/03/06 00:05:48;;;;;;;1.57;1.20;;;7.70;98.20;;;;;;4856965;29;20231;-82
2024/03/06 00:08:15;;;;;;;1.53;1.20;;;7.70;98.20;;;;;;4889401;29;20543;-82
2024/03/06 00:10:45;;;;;;;1.57;1.20;;;7.70;98.20;;;;;;4869291;29;20467;-83
2024/03/06 00:13:11;;;;;;;1.50;1.20;;;7.60;98.20;;;;;;4859167;29;20942;-83
2024/03/06 00:15:38;;;;;;;1.57;1.20;;;7.60;98.20;;;;;;4867560;29;20495;-82
2024/03/06 00:18:06;;;;;;;1.57;1.20;;;7.60;98.20;;;;;;4854330;29;20503;-82
2024/03/06 00:20:34;;;;;;;1.57;1.20;;;7.60;98.20;;;;;;4867225;29;20486;-82
2024/03/06 00:23:01;;;;;;;1.53;1.20;;;7.60;98.20;;;;;;4883348;29;20568;-83
2024/03/06 00:25:27;;;;;;;1.53;1.20;;;7.60;98.20;;;;;;4867804;29;20534;-83
2024/03/06 00:27:55;;;;;;;1.57;1.20;;;7.50;98.20;;;;;;4879851;29;20557;-85
2024/03/06 00:30:21;;;;;;;1.53;1.20;;;7.50;98.20;;;;;;4868082;29;20471;-83
2024/03/06 00:32:48;;;;;;;1.60;1.20;;;7.50;98.20;;;;;;4878163;29;20495;-81
2024/03/06 00:35:14;;;;;;;1.50;1.20;;;7.50;98.20;;;;;;4866624;29;20471;-85
2024/03/06 00:37:42;;;;;;;1.57;1.10;;;7.50;98.20;;;;;;4855369;29;20783;-82
2024/03/06 00:40:10;;;;;;;1.57;1.20;;;7.50;98.20;;;;;;4867641;29;20225;-82
2024/03/06 00:42:37;;;;;;;1.50;1.10;;;7.50;98.20;;;;;;4886776;29;20497;-81
2024/03/06 00:45:05;;;;;;;1.53;1.20;;;7.50;98.20;;;;;;4874070;29;20530;-82
2024/03/06 00:47:34;;;;;;;1.60;1.40;;;7.40;98.20;;;;;;4851154;29;20523;-81
2024/03/06 00:50:01;;;;;;;5.03;4.70;;;7.40;98.20;;;;;;4868048;29;20990;-83
2024/03/06 00:52:27;;;;;;;1.57;1.30;;;7.40;98.20;;;;;;4874869;29;20882;-81
2024/03/06 00:54:56;;;;;;;1.60;1.30;;;7.40;98.20;;;;;;4869642;29;20538;-82
2024/03/06 00:57:23;;;;;;;1.57;1.20;;;7.40;98.20;;;;;;4875323;29;20486;-81
2024/03/06 00:59:50;;;;;;;1.57;1.20;;;7.40;98.20;;;;;;4871219;29;20475;-82
2024/03/06 01:02:16;;;;;;;1.60;1.30;;;7.40;98.20;;;;;;4876892;29;20597;-82
2024/03/06 01:04:43;;;;;;;1.60;1.47;;;7.40;98.20;;;;;;4870423;29;20503;-82
2024/03/06 01:07:10;;;;;;;1.50;1.20;;;7.30;98.20;;;;;;4874751;29;20939;-85
2024/03/06 01:09:37;;;;;;;1.50;1.20;;;7.40;98.20;;;;;;4876112;29;20555;-82
2024/03/06 01:12:05;;;;;;;1.50;1.20;;;7.40;98.20;;;;;;4870557;29;20494;-84
2024/03/06 01:14:32;;;;;;;1.60;1.30;;;7.40;98.20;;;;;;4876230;29;20865;-82
2024/03/06 01:16:59;;;;;;;1.57;1.27;;;7.40;98.20;;;;;;4870008;29;20489;-82
2024/03/06 01:19:26;;;;;;;1.57;1.20;;;7.40;98.20;;;;;;4877867;29;20918;-81
2024/03/06 01:21:53;;;;;;;1.60;1.20;;;7.40;98.20;;;;;;4866761;29;20489;-81
2024/03/06 01:24:20;;;;;;;1.60;1.20;;;7.40;98.20;;;;;;4877859;29;20514;-82
2024/03/06 01:26:47;;;;;;;1.57;1.30;;;7.30;98.20;;;;;;4854766;29;20547;-81
2024/03/06 01:29:15;;;;;;;1.60;1.30;;;7.30;98.20;;;;;;4866949;29;20476;-81
2024/03/06 01:31:42;;;;;;;1.60;1.30;;;7.30;98.20;;;;;;4868415;29;20489;-81
2024/03/06 01:34:08;;;;;;;1.53;1.20;;;7.30;98.20;;;;;;4873941;29;20498;-82
2024/03/06 01:36:35;;;;;;;1.57;1.33;;;7.30;98.20;;;;;;4866185;29;20497;-80
2024/03/06 01:39:02;;;;;;;1.53;1.23;;;7.30;98.20;;;;;;4878442;29;20498;-81
2024/03/06 01:41:31;;;;;;;1.60;1.20;;;7.30;98.20;;;;;;4862983;29;20494;-82
2024/03/06 01:43:58;;;;;;;1.60;1.30;;;7.30;98.20;;;;;;4876939;29;20487;-80
2024/03/06 01:46:26;;;;;;;1.57;1.30;;;7.20;98.20;;;;;;4861163;29;20490;-82
2024/03/06 01:48:53;;;;;;;1.57;1.20;;;7.20;98.20;;;;;;4878432;29;20467;-81
2024/03/06 01:51:20;;;;;;;1.60;1.30;;;7.20;98.20;;;;;;4857497;29;20479;-82
2024/03/06 01:53:47;;;;;;;1.60;1.30;;;7.10;98.20;;;;;;4866418;29;20474;-80
2024/03/06 01:56:17;;;;;;;1.60;1.23;;;7.10;98.20;;;;;;4855433;29;20487;-80
2024/03/06 01:58:46;;;;;;;1.53;1.20;;;7.10;98.20;;;;;;4863619;29;20471;-84
2024/03/06 02:01:16;;;;;;;1.57;1.30;;;7.10;98.20;;;;;;4860937;29;20505;-82
2024/03/06 02:03:45;;;;;;;1.50;1.20;;;7.10;98.20;;;;;;4886147;29;20467;-82
2024/03/06 02:06:15;;;;;;;1.57;1.23;;;7.10;98.20;;;;;;4856242;29;20497;-83
2024/03/06 02:08:41;;;;;;;1.60;1.20;;;7.10;98.20;;;;;;4884696;29;20471;-82
2024/03/06 02:11:08;;;;;;;1.57;1.20;;;7.10;98.20;;;;;;4860271;29;20602;-81
2024/03/06 02:13:35;;;;;;;1.50;1.10;;;7.10;98.20;;;;;;4884465;29;20503;-82
2024/03/06 02:16:02;;;;;;;1.53;1.20;;;7.10;98.20;;;;;;4856283;29;20574;-80
2024/03/06 02:18:29;;;;;;;1.53;1.23;;;7.10;98.20;;;;;;4889269;29;20509;-81
2024/03/06 02:20:57;;;;;;;1.57;1.30;;;7.10;98.20;;;;;;4858280;29;20516;-81
2024/03/06 02:23:24;;;;;;;1.60;1.30;;;7.10;98.20;;;;;;4880447;29;20503;-82
2024/03/06 02:25:50;;;;;;;1.60;1.30;;;7.20;98.20;;;;;;4854245;29;20563;-83
2024/03/06 02:28:17;;;;;;;1.57;1.20;;;7.20;98.20;;;;;;4888168;29;20464;-81
2024/03/06 02:30:44;;;;;;;1.60;1.27;;;7.20;98.20;;;;;;4863962;29;20472;-82
2024/03/06 02:33:11;;;;;;;1.57;1.30;;;7.10;98.20;;;;;;4856057;29;20479;-82
2024/03/06 02:35:39;;;;;;;1.53;1.20;;;7.10;98.20;;;;;;4863138;29;21087;-82
2024/03/06 02:38:07;;;;;;;1.57;1.20;;;7.10;98.20;;;;;;4855878;29;20520;-81
2024/03/06 02:40:34;;;;;;;1.60;1.43;;;7.10;98.20;;;;;;4866944;29;20527;-83
2024/03/06 02:43:01;;;;;;;1.60;1.20;;;7.20;98.20;;;;;;4855418;29;20495;-82
2024/03/06 02:45:28;;;;;;;1.57;1.30;;;7.20;98.20;;;;;;4865545;29;20647;-82
2024/03/06 02:47:55;;;;;;;1.53;1.20;;;7.20;98.20;;;;;;4865018;29;20492;-82
2024/03/06 02:50:23;;;;;;;1.57;1.30;;;7.20;98.20;;;;;;4865540;29;20538;-83
2024/03/06 02:52:51;;;;;;;1.57;1.30;;;7.20;98.20;;;;;;4875613;29;20497;-81
2024/03/06 02:55:19;;;;;;;1.53;1.23;;;7.20;98.20;;;;;;4861965;29;20505;-81
2024/03/06 02:57:46;;;;;;;1.57;1.30;;;7.10;98.20;;;;;;4853260;29;21003;-82
2024/03/06 03:00:16;;;;;;;1.57;1.20;;;7.10;98.20;;;;;;4873370;29;20460;-81
2024/03/06 03:02:43;;;;;;;1.57;1.30;;;7.10;98.20;;;;;;4887851;29;20466;-80
2024/03/06 03:05:10;;;;;;;1.53;1.20;;;7.00;98.20;;;;;;4865549;29;20486;-82
2024/03/06 03:08:03;;;;;;;1.70;1.60;;;7.00;98.20;;;;;;4849973;29;20497;-82
2024/03/06 03:10:32;;;;;;;1.53;1.20;;;6.90;98.20;;;;;;4857325;29;20540;-81
2024/03/06 03:13:00;;;;;;;1.53;1.20;;;6.90;98.20;;;;;;4872303;29;20963;-81
2024/03/06 03:15:26;;;;;;;1.60;1.30;;;6.80;98.20;;;;;;4864840;29;20569;-81
2024/03/06 03:17:56;;;;;;;1.57;1.20;;;6.80;98.20;;;;;;4872919;29;21054;-82
2024/03/06 03:20:23;;;;;;;1.60;1.20;;;6.80;98.20;;;;;;4868388;29;20471;-81
2024/03/06 03:22:49;;;;;;;1.60;1.30;;;6.80;98.20;;;;;;4874765;29;20490;-81
2024/03/06 03:25:16;;;;;;;1.53;1.20;;;6.80;98.20;;;;;;4868500;29;20474;-82
2024/03/06 03:27:44;;;;;;;1.60;1.40;;;6.80;98.20;;;;;;4870686;29;20504;-81
2024/03/06 03:30:12;;;;;;;1.50;1.20;;;6.80;98.20;;;;;;4868050;29;20481;-81
2024/03/06 03:32:39;;;;;;;1.53;1.20;;;6.70;98.20;;;;;;4876625;29;20515;-81
2024/03/06 03:35:07;;;;;;;1.60;1.47;;;6.70;98.20;;;;;;4868015;29;21046;-82
2024/03/06 03:37:34;;;;;;;1.50;1.27;;;6.70;98.20;;;;;;4870973;29;20517;-80
2024/03/06 03:40:02;;;;;;;1.60;1.40;;;6.60;98.20;;;;;;4869215;29;20479;-80
2024/03/06 03:42:29;;;;;;;1.53;1.23;;;6.60;98.20;;;;;;4874579;29;20478;-79
2024/03/06 03:44:57;;;;;;;1.50;1.20;;;6.60;98.20;;;;;;4865219;29;20467;-79
2024/03/06 03:47:24;;;;;;;1.60;1.30;;;6.50;98.20;;;;;;4853322;29;20499;-79
2024/03/06 03:49:51;;;;;;;1.60;1.30;;;6.50;98.20;;;;;;4867650;29;20477;-80
2024/03/06 03:52:18;;;;;;;1.57;1.33;;;6.50;98.20;;;;;;4871063;29;20481;-81
2024/03/06 03:54:45;;;;;;;1.60;1.40;;;6.50;98.20;;;;;;4868445;29;20478;-81
2024/03/06 03:57:14;;;;;;;1.60;1.50;;;6.50;98.20;;;;;;4868751;29;20493;-81
2024/03/06 03:59:41;;;;;;;1.60;1.37;;;6.60;98.20;;;;;;4870280;29;20471;-81
2024/03/06 04:02:09;;;;;;;1.57;1.20;;;6.60;98.20;;;;;;4869060;29;21124;-80
2024/03/06 04:04:36;;;;;;;1.60;1.30;;;6.60;98.20;;;;;;4871618;29;20463;-81
2024/03/06 04:07:03;;;;;;;1.60;1.30;;;6.60;98.20;;;;;;4853843;29;20498;-79
2024/03/06 04:09:30;;;;;;;1.60;1.30;;;6.60;98.20;;;;;;4864986;29;20480;-78
2024/03/06 04:11:57;;;;;;;1.60;1.30;;;6.60;98.20;;;;;;4865296;29;20763;-80
2024/03/06 04:14:24;;;;;;;1.57;1.20;;;6.60;98.20;;;;;;4872874;29;20515;-79
2024/03/06 04:16:51;;;;;;;1.53;1.20;;;6.50;98.20;;;;;;4862385;29;20521;-79
2024/03/06 04:19:19;;;;;;;1.57;1.33;;;6.50;98.20;;;;;;4876013;29;20498;-78
2024/03/06 04:21:46;;;;;;;1.60;1.20;;;6.50;98.20;;;;;;4855855;29;20567;-78
2024/03/06 04:24:13;;;;;;;1.60;1.30;;;6.50;98.20;;;;;;4866233;29;20475;-80
2024/03/06 04:26:39;;;;;;;1.60;1.30;;;6.50;98.20;;;;;;4859802;29;20497;-78
2024/03/06 04:29:06;;;;;;;1.60;1.23;;;6.50;98.20;;;;;;4873400;29;20482;-78
2024/03/06 04:31:33;;;;;;;1.60;1.30;;;6.50;98.20;;;;;;4862215;29;20485;-79
2024/03/06 04:34:00;;;;;;;1.53;1.30;;;6.50;98.20;;;;;;4879746;29;20561;-78
2024/03/06 04:38:55;;;;;;;1.57;1.30;;;6.50;98.20;;;;;;4894648;23;20499;-84
2024/03/06 04:41:23;;;;;;;1.50;1.20;;;6.60;98.20;;;;;;4860669;29;20486;-83
2024/03/06 04:43:51;;;;;;;1.57;1.20;;;6.60;98.20;;;;;;4874965;29;20550;-83
2024/03/06 04:46:18;;;;;;;1.53;1.30;;;6.60;98.20;;;;;;4854010;29;20479;-83
2024/03/06 04:48:47;;;;;;;3.33;2.37;;;6.60;98.20;;;;;;4870983;29;20494;-83
2024/03/06 04:51:14;;;;;;;1.60;1.20;;;6.60;98.20;;;;;;4858822;29;20497;-83
2024/03/06 04:53:42;;;;;;;1.53;1.20;;;6.60;98.20;;;;;;4876030;29;20499;-83
2024/03/06 04:56:09;;;;;;;1.50;1.30;;;6.60;98.20;;;;;;4855955;29;20482;-83
2024/03/06 04:58:35;;;;;;;1.60;1.30;;;6.60;98.20;;;;;;4882556;29;20522;-83
2024/03/06 05:01:03;;;;;;;1.60;1.30;;;6.60;98.20;;;;;;4857002;29;20510;-84
2024/03/06 05:03:30;;;;;;;2.70;2.50;;;6.60;98.20;;;;;;4881240;29;21030;-83
2024/03/06 05:05:57;;;;;;;1.53;1.23;;;6.60;98.20;;;;;;4853501;29;20483;-82
2024/03/06 05:08:24;;;;;;;1.50;1.20;;;6.60;98.20;;;;;;4882818;29;20487;-83
2024/03/06 05:10:52;;;;;;;1.60;1.50;;;6.60;98.20;;;;;;4856293;29;20547;-83
2024/03/06 05:13:19;;;;;;;1.60;1.30;;;6.60;98.20;;;;;;4876172;29;20480;-83
2024/03/06 05:15:45;;;;;;;1.60;1.30;;;6.70;98.20;;;;;;4863046;29;20535;-83
2024/03/06 05:18:12;;;;;;;1.53;1.27;;;6.70;98.20;;;;;;4852485;29;20490;-83
2024/03/06 05:20:39;;;;;;;1.57;1.30;;;6.70;98.20;;;;;;4863941;29;20479;-83
2024/03/06 05:23:06;;;;;;;1.57;1.27;;;6.70;98.20;;;;;;4874893;29;20492;-82
2024/03/06 05:25:32;;;;;;;1.60;1.40;;;6.70;98.20;;;;;;4864780;29;20918;-83
2024/03/06 05:28:01;;;;;;;1.60;1.40;;;6.70;98.20;;;;;;4868769;29;20558;-84
2024/03/06 05:30:28;;;;;;;1.60;1.30;;;6.70;98.20;;;;;;4864310;29;20477;-84
2024/03/06 05:32:55;;;;;;;1.57;1.30;;;6.70;98.20;;;;;;4877024;29;20488;-83
2024/03/06 05:35:22;;;;;;;1.60;1.30;;;6.70;98.20;;;;;;4862729;29;20474;-83
2024/03/06 05:37:49;;;;;;;1.50;1.20;;;6.70;98.20;;;;;;4866877;29;20502;-83
2024/03/06 05:40:16;;;;;;;1.60;1.30;;;6.70;98.20;;;;;;4863770;29;20497;-83
2024/03/06 05:42:43;;;;;;;1.60;1.30;;;6.60;98.20;;;;;;4868944;29;20501;-84
2024/03/06 05:45:12;;;;;;;1.57;1.20;;;6.60;98.20;;;;;;4867192;29;20467;-83
2024/03/06 05:47:39;;;;;;;1.57;1.30;;;6.60;98.20;;;;;;4870676;29;20604;-83
2024/03/06 05:50:06;;;;;;;1.53;1.20;;;6.60;98.20;;;;;;4865563;29;20535;-83
2024/03/06 05:52:34;;;;;;;1.60;1.30;;;6.60;98.20;;;;;;4874477;29;20924;-85
2024/03/06 05:55:01;;;;;;;1.60;1.40;;;6.60;98.20;;;;;;4866677;29;20471;-83
2024/03/06 05:57:28;;;;;;;1.60;1.30;;;6.60;98.20;;;;;;4866496;29;20495;-83
2024/03/06 05:59:55;;;;;;;1.60;1.20;;;6.50;98.20;;;;;;4862488;29;20503;-83
2024/03/06 06:02:23;;;;;;;1.57;1.20;;;6.50;98.20;;;;;;4870818;29;20525;-83
2024/03/06 06:04:50;;;;;;;1.60;1.33;;;6.50;98.20;;;;;;4866771;29;20493;-83
2024/03/06 06:07:18;;;;;;;1.60;1.37;;;6.40;98.20;;;;;;4869339;29;20499;-82
2024/03/06 06:09:44;;;;;;;1.60;1.50;;;6.40;98.20;;;;;;4867874;29;20463;-84
2024/03/06 06:12:11;;;;;;;1.57;1.27;;;6.30;98.20;;;;;;4865979;29;20478;-82
2024/03/06 06:14:38;;;;;;;1.60;1.30;;;6.30;98.20;;;;;;4868583;29;21219;-82
2024/03/06 06:17:05;;;;;;;1.60;1.30;;;6.30;98.20;;;;;;4860154;29;20499;-82
2024/03/06 06:19:33;;;;;;;1.50;1.30;;;6.30;98.20;;;;;;4868145;29;20577;-83
2024/03/06 06:22:00;;;;;;;1.60;1.40;;;6.20;98.20;;;;;;4862670;29;20985;-83
2024/03/06 06:24:27;;;;;;;1.60;1.30;;;6.20;98.20;;;;;;4867880;29;20574;-83
2024/03/06 06:26:54;;;;;;;1.60;1.20;;;6.20;98.20;;;;;;4862084;29;20577;-83
2024/03/06 06:29:21;;;;;;;1.60;1.40;;;6.20;98.20;;;;;;4870534;29;20467;-82
2024/03/06 06:31:48;;;;;;;1.57;1.23;;;6.20;98.20;;;;;;4862897;29;20546;-84
2024/03/06 06:34:14;;;;;;;1.60;1.40;;;6.20;98.20;;;;;;4870056;29;20509;-85
2024/03/06 06:36:47;;;;;;;1.60;1.30;;;6.20;98.20;;;;;;4864046;29;20513;-83
2024/03/06 06:39:14;;;;;;;1.60;1.30;;;6.20;98.20;;;;;;4873267;29;20598;-84
2024/03/06 06:41:41;;;;;;;1.60;1.20;;;6.30;98.20;;;;;;4864074;29;20489;-83
2024/03/06 06:44:07;;;;;;;1.57;1.20;;;6.30;98.20;;;;;;4871740;29;20647;-82
2024/03/06 06:46:34;;;;;;;1.60;1.30;;;6.30;98.20;;;;;;4858182;29;20490;-80
2024/03/06 06:49:01;;;;;;;1.60;1.30;;;6.20;98.20;;;;;;4865142;29;20479;-82
2024/03/06 06:51:28;;;;;;;1.60;1.30;;;6.20;98.20;;;;;;4861178;29;20794;-81
2024/03/06 06:53:56;;;;;;;1.60;1.40;;;6.20;98.20;;;;;;4874519;29;20486;-81
2024/03/06 06:56:23;;;;;;;1.60;1.30;;;6.20;98.20;;;;;;4861149;29;20619;-81
2024/03/06 06:58:50;;;;;;;1.57;1.30;;;6.30;98.20;;;;;;4879066;29;20566;-81
2024/03/06 07:01:18;;;;;;;1.57;1.30;;;6.30;98.20;;;;;;4850542;29;20568;-81
2024/03/06 07:03:45;;;;;;;1.53;1.20;;;6.30;98.20;;;;;;4860040;29;20638;-76
2024/03/06 07:06:12;;;;;;;1.50;1.20;;;6.30;98.20;;;;;;4838841;29;20913;-77
2024/03/06 07:08:39;;;;;;;1.50;1.20;;;6.30;98.20;;;;;;4867902;29;20498;-79
2024/03/06 07:11:07;;;;;;;1.60;1.37;;;6.40;98.20;;;;;;4858650;29;20520;-79
2024/03/06 07:13:34;;;;;;;1.60;1.30;;;6.40;98.20;;;;;;4879264;29;20540;-78
2024/03/06 07:16:03;;;;;;;6.33;2.93;;;6.40;98.20;;;;;;4857635;29;20467;-81
2024/03/06 07:18:30;;;;;;;1.57;1.20;;;6.40;98.20;;;;;;4879326;29;20495;-80
2024/03/06 07:20:57;;;;;;;1.60;1.30;;;6.40;98.20;;;;;;4858816;29;20535;-81
2024/03/06 07:23:24;;;;;;;1.60;1.30;;;6.40;98.20;;;;;;4877748;29;20545;-80
2024/03/06 07:25:51;;;;;;;1.57;1.20;;;6.50;98.20;;;;;;4856328;29;20989;-81
2024/03/06 07:28:20;;;;;;;1.60;1.40;;;6.50;98.20;;;;;;4878359;29;20750;-80
2024/03/06 07:30:47;;;;;;;1.60;1.30;;;6.60;98.20;;;;;;4856786;29;20467;-81
2024/03/06 07:33:14;;;;;;;1.57;1.20;;;6.70;98.20;;;;;;4879115;29;20993;-79
2024/03/06 07:35:41;;;;;;;2.43;2.23;;;6.70;98.20;;;;;;4865115;29;20538;-79
2024/03/06 07:38:09;;;;;;;1.60;1.20;;;6.80;98.20;;;;;;4871081;29;20497;-81
2024/03/06 07:40:35;;;;;;;1.60;1.47;;;6.90;98.20;;;;;;4866973;29;20478;-81
2024/03/06 07:43:04;;;;;;;1.53;1.20;;;6.90;98.20;;;;;;4868050;29;20484;-79
2024/03/06 07:45:32;;;;;;;1.53;1.20;;;7.00;98.20;;;;;;4867230;29;20495;-80
2024/03/06 07:47:59;;;;;;;4.23;3.83;;;7.10;98.20;;;;;;4869979;29;20494;-81
2024/03/06 07:50:27;;;;;;;1.60;1.27;;;7.10;98.20;;;;;;4865690;29;20531;-78
2024/03/06 07:52:54;;;;;;;1.60;1.20;;;7.20;98.20;;;;;;4870798;29;20546;-81
2024/03/06 07:55:22;;;;;;;1.50;1.20;;;7.20;98.20;;;;;;4864976;29;20474;-79
2024/03/06 07:57:49;;;;;;;1.57;1.20;;;7.30;98.20;;;;;;4869343;29;20521;-78
2024/03/06 08:00:19;;;;;;;1.60;1.30;;;7.30;98.20;;;;;;4865167;29;20495;-81
2024/03/06 08:02:49;;;;;;;1.53;1.20;;;7.40;98.20;;;;;;4867012;29;20490;-81
2024/03/06 08:05:17;;;;;;;1.60;1.27;;;7.40;98.20;;;;;;4865991;29;21861;-79
2024/03/06 08:07:45;;;;;;;1.60;1.10;;;7.50;98.20;;;;;;4867474;29;20576;-81
2024/03/06 08:10:13;;;;;;;1.53;1.30;;;7.50;98.20;;;;;;4865554;29;20895;-81
2024/03/06 08:12:41;;;;;;;1.53;1.20;;;7.50;98.20;;;;;;4866566;29;20546;-80
2024/03/06 08:15:11;;;;;;;2.00;1.80;;;7.60;98.20;;;;;;4864081;29;20481;-82
2024/03/06 08:17:39;;;;;;;1.53;1.20;;;7.60;98.20;;;;;;4865678;29;20589;-81
2024/03/06 08:20:09;;;;;;;1.57;1.20;;;7.70;98.20;;;;;;4862582;29;20562;-81
2024/03/06 08:22:38;;;;;;;1.60;1.30;;;7.70;98.20;;;;;;4862408;29;20529;-80
2024/03/06 08:25:07;;;;;;;4.90;3.90;;;7.70;98.20;;;;;;4861928;29;20476;-80
2024/03/06 08:27:34;;;;;;;1.57;1.20;;;7.70;98.20;;;;;;4866069;29;20681;-81
2024/03/06 08:30:04;;;;;;;2.33;2.13;;;7.70;98.20;;;;;;4863387;29;20495;-81
2024/03/06 08:32:31;;;;;;;1.60;1.30;;;7.90;98.20;;;;;;4864103;29;20478;-80
2024/03/06 08:34:58;;;;;;;1.60;1.20;;;8.10;98.20;;;;;;4863085;29;21064;-80
2024/03/06 08:37:26;;;;;;;1.57;1.20;;;8.20;98.20;;;;;;4866939;29;20492;-82
2024/03/06 08:39:53;;;;;;;1.60;1.20;;;8.30;98.20;;;;;;4864678;29;20503;-81
2024/03/06 08:42:20;;;;;;;1.60;1.20;;;8.30;98.20;;;;;;4864793;29;20498;-82
2024/03/06 08:44:47;;;;;;;1.57;1.10;;;8.40;98.20;;;;;;4865082;29;20467;-81
2024/03/06 08:47:14;;;;;;;1.60;1.20;;;8.40;98.20;;;;;;4863244;29;20490;-80
2024/03/06 08:49:41;;;;;;;1.57;1.30;;;8.40;98.20;;;;;;4866766;29;20562;-80
2024/03/06 08:52:09;;;;;;;1.60;1.20;;;8.50;98.20;;;;;;4861913;29;20509;-80
2024/03/06 08:54:41;;;;;;;1.60;1.20;;;8.60;98.20;;;;;;4868279;29;20538;-82
2024/03/06 08:57:08;;;;;;;1.60;1.20;;;8.60;98.20;;;;;;4863679;29;20934;-84
2024/03/06 08:59:35;;;;;;;1.60;1.13;;;8.80;98.20;;;;;;4872133;29;20538;-83
2024/03/06 09:02:14;;;;;;;1.60;1.40;;;8.90;98.20;;;;;;4863830;29;21064;-82
2024/03/06 09:04:41;;;;;;;1.53;1.10;;;9.00;98.20;;;;;;4863727;29;20486;-80
2024/03/06 09:07:08;;;;;;;1.63;1.27;;;9.00;98.20;;;;;;4859291;29;20494;-81
2024/03/06 09:09:37;;;;;;;1.57;1.10;;;9.10;98.20;;;;;;4862576;29;20904;-80
2024/03/06 09:12:05;;;;;;;1.60;1.20;;;9.20;98.20;;;;;;4856344;29;20872;-81
2024/03/06 09:14:32;;;;;;;1.87;1.67;;;9.20;98.20;;;;;;4862379;29;20467;-80
2024/03/06 09:16:59;;;;;;;1.53;1.00;;;9.40;98.20;;;;;;4857138;29;20553;-79
2024/03/06 09:19:26;;;;;;;1.70;1.47;;;9.50;98.20;;;;;;4860061;29;20491;-81
2024/03/06 09:21:53;;;;;;;1.53;1.10;;;9.80;98.20;;;;;;4856391;29;20597;-79
2024/03/06 09:24:21;;;;;;;1.60;1.10;;;9.90;98.20;;;;;;4864633;29;20586;-81
2024/03/06 09:26:49;;;;;;;4.33;2.10;;;10.10;98.20;;;;;;4857540;29;20527;-80
2024/03/06 09:29:16;;;;;;;1.50;1.10;;;10.30;98.20;;;;;;4866884;29;20526;-80
2024/03/06 09:31:44;;;;;;;1.60;1.20;;;10.50;98.20;;;;;;4858050;29;20492;-78
2024/03/06 09:34:13;;;;;;;1.60;1.23;;;10.50;98.20;;;;;;4864667;29;20492;-80
2024/03/06 09:36:44;;;;;;;1.57;1.10;;;10.60;98.20;;;;;;4854322;29;20526;-81
2024/03/06 09:39:11;;;;;;;1.60;1.30;;;10.60;98.20;;;;;;4865467;29;20579;-82
2024/03/06 09:41:41;;;;;;;1.50;1.00;;;10.30;98.20;;;;;;4858100;29;20586;-80
2024/03/06 09:44:09;;;;;;;1.60;1.10;;;10.30;98.20;;;;;;4866867;29;20467;-80
2024/03/06 09:46:36;;;;;;;1.50;1.10;;;10.20;98.20;;;;;;4856683;29;20494;-83
2024/03/06 09:49:04;;;;;;;1.57;1.10;;;10.40;98.20;;;;;;4868427;29;20924;-82
2024/03/06 09:51:31;;;;;;;1.60;1.10;;;10.70;98.20;;;;;;4857127;29;21265;-82
2024/03/06 09:53:59;;;;;;;2.30;1.60;;;11.00;98.20;;;;;;4869754;29;20556;-82
2024/03/06 09:56:25;;;;;;;1.53;1.10;;;11.10;98.20;;;;;;4858182;29;20490;-84
2024/03/06 09:58:53;;;;;;;1.57;1.07;;;11.20;98.20;;;;;;4869588;29;20525;-81
2024/03/06 10:01:24;;;;;;;1.60;1.10;;;11.30;98.20;;;;;;4852467;29;20494;-81
2024/03/06 10:03:51;;;;;;;1.57;1.00;;;11.20;98.20;;;;;;4867620;29;20542;-83
2024/03/06 10:06:18;;;;;;;1.57;1.10;;;11.10;98.20;;;;;;4850621;29;20871;-83
2024/03/06 10:08:46;;;;;;;1.60;1.20;;;11.20;98.20;;;;;;4865924;29;21020;-82
2024/03/06 10:11:13;;;;;;;1.60;1.10;;;11.20;98.20;;;;;;4852301;29;20481;-83
2024/03/06 10:13:40;;;;;;;1.60;1.10;;;11.30;98.20;;;;;;4866989;29;20510;-82
2024/03/06 10:16:09;;;;;;;1.53;1.00;;;11.40;98.20;;;;;;4851905;29;20648;-82
2024/03/06 10:18:39;;;;;;;1.50;1.00;;;11.50;98.20;;;;;;4868853;29;20616;-82
2024/03/06 10:21:06;;;;;;;1.60;1.17;;;11.60;98.20;;;;;;4852993;29;20783;-83
2024/03/06 10:23:34;;;;;;;1.57;1.10;;;11.90;98.20;;;;;;4870286;29;20702;-82
2024/03/06 10:26:01;;;;;;;1.53;1.00;;;12.00;98.20;;;;;;4850310;29;20531;-83
2024/03/06 10:28:28;;;;;;;1.57;1.10;;;12.00;98.20;;;;;;4872392;29;20520;-82
2024/03/06 10:31:04;;;;;;;1.57;1.00;;;12.10;98.20;;;;;;4850782;29;20483;-82
2024/03/06 10:33:33;;;;;;;1.60;1.20;;;12.10;98.20;;;;;;4873160;29;20471;-81
2024/03/06 10:36:01;;;;;;;1.57;1.00;;;12.10;98.20;;;;;;4851382;29;20527;-82
2024/03/06 10:38:35;;;;;;;1.53;1.00;;;12.00;98.20;;;;;;4866881;29;21116;-83
2024/03/06 10:41:03;;;;;;;1.60;1.20;;;12.00;98.20;;;;;;4851085;29;20531;-84
2024/03/06 10:43:31;;;;;;;1.57;1.10;;;12.10;98.20;;;;;;4869822;29;20471;-82
2024/03/06 10:46:04;;;;;;;1.57;1.00;;;12.20;98.20;;;;;;4848932;29;20479;-83
2024/03/06 10:48:31;;;;;;;1.60;1.20;;;12.20;98.20;;;;;;4870639;29;20487;-83
2024/03/06 10:51:00;;;;;;;1.57;1.07;;;12.20;98.20;;;;;;4852380;29;20479;-83
2024/03/06 10:53:30;;;;;;;1.60;1.13;;;12.20;98.20;;;;;;4870909;29;20539;-83
2024/03/06 10:55:59;;;;;;;1.60;1.10;;;12.20;98.20;;;;;;4852359;29;20475;-81
2024/03/06 10:58:26;;;;;;;1.60;1.03;;;12.20;98.20;;;;;;4874537;29;20530;-81
2024/03/06 11:00:57;;;;;;;1.60;1.10;;;12.10;98.20;;;;;;4852058;29;20656;-81
2024/03/06 11:03:26;;;;;;;1.60;1.10;;;11.90;98.20;;;;;;4869224;29;20467;-81
2024/03/06 11:05:53;;;;;;;1.60;1.30;;;11.70;98.20;;;;;;4849017;29;20544;-83
2024/03/06 11:08:21;;;;;;;1.60;1.10;;;11.80;98.20;;;;;;4880315;29;20487;-82
2024/03/06 11:10:49;;;;;;;1.60;1.13;;;12.00;98.20;;;;;;4856466;29;20927;-83
2024/03/06 11:13:23;;;;;;;1.60;1.10;;;12.20;98.20;;;;;;4869732;29;20476;-83
2024/03/06 11:15:51;;;;;;;1.60;1.20;;;12.30;98.20;;;;;;4850355;29;20507;-83
2024/03/06 11:18:44;;;;;;;1.60;1.00;;;12.30;98.20;;;;;;4871176;29;21069;-83
2024/03/06 11:21:48;;;;;;;1.53;1.00;;;12.40;98.20;;;;;;4852656;29;20605;-83
2024/03/06 11:24:20;;;;;;;1.57;1.00;;;12.40;98.20;;;;;;4817639;29;20471;-82
2024/03/06 11:26:57;;;;;;;1.57;1.00;;;12.80;98.20;;;;;;4854173;29;21196;-83
2024/03/06 11:29:26;;;;;;;1.50;1.00;;;13.10;98.20;;;;;;4862566;29;20478;-82
2024/03/06 11:32:02;;;;;;;2.23;1.83;;;13.40;98.20;;;;;;4854306;29;20510;-82
2024/03/06 11:34:30;;;;;;;1.60;1.00;;;13.60;98.20;;;;;;4861963;29;20554;-82
2024/03/06 11:36:58;;;;;;;1.57;1.00;;;13.80;98.20;;;;;;4858863;29;20558;-84
2024/03/06 11:39:25;;;;;;;1.63;1.40;;;13.50;98.20;;;;;;4862129;29;20481;-83
2024/03/06 11:41:53;;;;;;;1.50;1.00;;;13.40;98.20;;;;;;4859477;29;20751;-83
2024/03/06 11:44:22;;;;;;;1.60;1.00;;;13.50;98.20;;;;;;4866606;29;20506;-84
2024/03/06 11:46:53;;;;;;;1.57;1.00;;;13.50;98.20;;;;;;4860255;29;20490;-82
2024/03/06 11:49:21;;;;;;;1.57;1.00;;;13.50;98.20;;;;;;4865377;29;20977;-83
2024/03/06 11:51:49;;;;;;;1.50;1.00;;;13.50;98.20;;;;;;4852524;29;20486;-83
2024/03/06 11:54:16;;;;;;;1.57;1.00;;;13.70;98.20;;;;;;4864417;29;20525;-83
2024/03/06 11:56:45;;;;;;;2.50;2.30;;;13.80;98.20;;;;;;4857873;29;20494;-82
2024/03/06 11:59:14;;;;;;;1.60;1.03;;;14.00;98.20;;;;;;4866040;29;20482;-83
2024/03/06 12:01:42;;;;;;;1.60;1.10;;;14.00;98.20;;;;;;4857065;29;20505;-83
2024/03/06 12:04:09;;;;;;;1.90;1.63;;;14.20;98.20;;;;;;4865257;29;20490;-82
2024/03/06 12:06:37;;;;;;;1.60;1.00;;;14.30;98.20;;;;;;4857369;29;20498;-82
2024/03/06 12:09:04;;;;;;;2.33;1.20;;;14.30;98.20;;;;;;4868053;29;21256;-84
2024/03/06 12:11:31;;;;;;;1.60;1.10;;;14.40;98.20;;;;;;4856626;29;20786;-82
2024/03/06 12:13:58;;;;;;;2.07;1.87;;;14.40;98.20;;;;;;4869605;29;20479;-85
2024/03/06 12:16:28;;;;;;;1.53;1.00;;;14.30;98.20;;;;;;4856915;29;20519;-83
2024/03/06 12:18:57;;;;;;;1.57;1.00;;;14.30;98.20;;;;;;4868023;29;20499;-82
2024/03/06 12:21:28;;;;;;;1.57;0.97;;;14.30;98.20;;;;;;4853627;29;20582;-83
2024/03/06 12:24:04;;;;;;;1.57;1.00;;;14.50;98.20;;;;;;4868075;29;20467;-83
2024/03/06 12:26:30;;;;;;;1.57;1.00;;;14.60;98.20;;;;;;4861102;29;21081;-83
2024/03/06 12:29:08;;;;;;;1.60;1.00;;;14.70;98.20;;;;;;4865230;29;20479;-82
2024/03/06 12:31:39;;;;;;;1.50;1.00;;;14.60;98.20;;;;;;4852099;29;20478;-83
2024/03/06 12:34:06;;;;;;;1.50;0.93;;;14.40;98.20;;;;;;4861389;29;20510;-82
2024/03/06 12:36:34;;;;;;;1.50;1.00;;;14.20;98.20;;;;;;4850582;29;20482;-82
2024/03/06 12:39:03;;;;;;;1.57;1.00;;;13.90;98.20;;;;;;4868796;29;20502;-83
2024/03/06 12:41:30;;;;;;;1.60;1.20;;;13.70;98.20;;;;;;4855504;29;20496;-83
2024/03/06 12:43:58;;;;;;;1.80;1.60;;;13.50;98.20;;;;;;4867047;29;20919;-83
2024/03/06 12:46:26;;;;;;;1.53;1.00;;;13.40;98.20;;;;;;4851023;29;20492;-82
2024/03/06 12:48:54;;;;;;;1.60;1.10;;;13.30;98.20;;;;;;4870042;29;21034;-82
2024/03/06 12:51:22;;;;;;;1.70;1.20;;;13.20;98.20;;;;;;4854289;29;20830;-82
2024/03/06 12:53:49;;;;;;;1.50;1.10;;;13.00;98.20;;;;;;4871816;29;20487;-83
2024/03/06 12:56:16;;;;;;;1.50;1.00;;;13.10;98.20;;;;;;4851216;29;21093;-82
2024/03/06 12:58:43;;;;;;;1.60;1.00;;;13.30;98.20;;;;;;4871077;29;20567;-83
2024/03/06 13:01:10;;;;;;;1.50;1.00;;;13.50;98.20;;;;;;4852004;29;20523;-83